Time;durP1;ratioP1;P1;durP2;ratioP2;P2;SDS_P1;SDS_P2;PMS_P1;PMS_P2;Temp;Humidity;BMP_temperature;BMP_pressure;BME280_temperature;BME280_humidity;BME280_pressure;Samples;Min_cycle;Max_cycle;Signal;HPM_P1;HPM_P2
2022/07/08 00:01:08;;;;;;;;;;;18.40;65.70;;;;;;5063051;28;19916;-74
2022/07/08 00:03:33;;;;;;;;;;;18.50;65.70;;;;;;5063023;28;19912;-74
2022/07/08 00:05:59;;;;;;;;;;;18.40;65.70;;;;;;5062663;28;20273;-74
2022/07/08 00:08:26;;;;;;;;;;;18.40;65.70;;;;;;5056344;28;19920;-74
2022/07/08 00:10:52;;;;;;;;;;;18.40;65.70;;;;;;5046399;28;20008;-74
2022/07/08 00:13:17;;;;;;;;;;;18.40;65.50;;;;;;5063389;28;19962;-74
2022/07/08 00:15:43;;;;;;;;;;;18.40;65.70;;;;;;5064410;28;19916;-74
2022/07/08 00:18:08;;;;;;;;;;;18.40;65.70;;;;;;5066427;28;20029;-74
2022/07/08 00:20:34;;;;;;;;;;;18.40;65.70;;;;;;5066874;28;19912;-74
2022/07/08 00:22:59;;;;;;;;;;;18.30;65.70;;;;;;5066166;28;19917;-74
2022/07/08 00:25:25;;;;;;;;;;;18.30;65.70;;;;;;5066355;28;19912;-74
2022/07/08 00:27:50;;;;;;;;;;;18.30;65.70;;;;;;5066058;28;20439;-74
2022/07/08 00:30:16;;;;;;;;;;;18.30;65.60;;;;;;5065160;28;20059;-74
2022/07/08 00:32:41;;;;;;;;;;;18.30;65.80;;;;;;5066357;28;19909;-74
2022/07/08 00:35:07;;;;;;;;;;;18.30;65.70;;;;;;5064975;28;20023;-74
2022/07/08 00:37:32;;;;;;;;;;;18.30;65.60;;;;;;5047829;28;19966;-74
2022/07/08 00:39:58;;;;;;;;;;;18.30;65.70;;;;;;5065256;28;20027;-74
2022/07/08 00:42:23;;;;;;;;;;;18.30;65.70;;;;;;5066292;28;20373;-74
2022/07/08 00:44:49;;;;;;;;;;;18.20;65.70;;;;;;5066382;28;19916;-74
2022/07/08 00:47:14;;;;;;;;;;;18.20;65.60;;;;;;5047302;28;19913;-74
2022/07/08 00:49:41;;;;;;;;;;;18.20;65.70;;;;;;5047660;28;19951;-74
2022/07/08 00:52:07;;;;;;;;;;;18.20;65.80;;;;;;5046719;28;19916;-74
2022/07/08 00:54:34;;;;;;;;;;;18.20;65.70;;;;;;5046570;28;20596;-74
2022/07/08 00:57:00;;;;;;;;;;;18.20;65.80;;;;;;5047323;28;20003;-74
2022/07/08 00:59:26;;;;;;;;;;;18.20;65.90;;;;;;5047727;28;19921;-74
2022/07/08 01:01:52;;;;;;;;;;;18.20;65.90;;;;;;5047507;28;19927;-74
2022/07/08 01:04:17;;;;;;;;;;;18.10;65.70;;;;;;5047661;28;19924;-74
2022/07/08 01:06:43;;;;;;;;;;;18.10;65.80;;;;;;5063883;28;19920;-74
2022/07/08 01:09:09;;;;;;;;;;;18.10;65.90;;;;;;5067116;28;20490;-74
2022/07/08 01:11:35;;;;;;;;;;;18.10;65.90;;;;;;5065861;28;20377;-74
2022/07/08 01:14:00;;;;;;;;;;;18.10;65.90;;;;;;5064261;28;19956;-74
2022/07/08 01:16:26;;;;;;;;;;;18.10;65.90;;;;;;5065619;28;20042;-74
2022/07/08 01:18:51;;;;;;;;;;;18.10;66.00;;;;;;5064244;28;19990;-74
2022/07/08 01:21:17;;;;;;;;;;;18.10;66.00;;;;;;5065470;28;19951;-73
2022/07/08 01:23:42;;;;;;;;;;;18.10;66.00;;;;;;5065738;28;19920;-74
2022/07/08 01:26:09;;;;;;;;;;;18.10;66.00;;;;;;5064687;28;19958;-74
2022/07/08 01:28:35;;;;;;;;;;;18.10;66.00;;;;;;5064644;28;19908;-74
2022/07/08 01:31:02;;;;;;;;;;;18.10;66.10;;;;;;5051502;28;19954;-74
2022/07/08 01:33:27;;;;;;;;;;;18.10;66.10;;;;;;5054812;28;19912;-74
2022/07/08 01:35:53;;;;;;;;;;;18.10;66.20;;;;;;5065684;28;20686;-74
2022/07/08 01:38:18;;;;;;;;;;;18.00;66.20;;;;;;5055103;28;20502;-74
2022/07/08 01:40:44;;;;;;;;;;;18.00;66.10;;;;;;5062878;28;20000;-74
2022/07/08 01:43:09;;;;;;;;;;;18.00;66.20;;;;;;5047163;28;19916;-74
2022/07/08 01:45:35;;;;;;;;;;;18.00;66.20;;;;;;5065103;28;19998;-74
2022/07/08 01:48:01;;;;;;;;;;;18.00;66.30;;;;;;5065015;28;20007;-74
2022/07/08 01:50:26;;;;;;;;;;;18.00;66.20;;;;;;5065451;28;19920;-74
2022/07/08 01:52:52;;;;;;;;;;;18.00;66.30;;;;;;5065190;28;19947;-74
2022/07/08 01:55:17;;;;;;;;;;;18.00;66.20;;;;;;5063849;28;19917;-74
2022/07/08 01:57:43;;;;;;;;;;;18.00;66.30;;;;;;5047979;28;19986;-74
2022/07/08 02:00:09;;;;;;;;;;;17.90;66.20;;;;;;5045960;28;19917;-74
2022/07/08 02:02:34;;;;;;;;;;;17.90;66.10;;;;;;5046336;28;19939;-74
2022/07/08 02:05:00;;;;;;;;;;;18.00;66.30;;;;;;5048431;28;19917;-74
2022/07/08 02:07:25;;;;;;;;;;;17.90;66.40;;;;;;5062619;28;19913;-74
2022/07/08 02:09:50;;;;;;;;;;;17.90;66.30;;;;;;5060997;28;19912;-74
2022/07/08 02:12:19;;;;;;;;;;;17.90;66.30;;;;;;5060794;28;19947;-73
2022/07/08 02:14:52;;;;;;;;;;;17.90;66.40;;;;;;5061972;28;20576;-74
2022/07/08 02:17:19;;;;;;;;;;;17.90;66.40;;;;;;5056995;28;19948;-74
2022/07/08 02:19:45;;;;;;;;;;;17.90;66.40;;;;;;5046337;28;20011;-74
2022/07/08 02:22:10;;;;;;;;;;;17.90;66.40;;;;;;5046055;28;19947;-74
2022/07/08 02:24:36;;;;;;;;;;;17.90;66.50;;;;;;5055009;28;19924;-74
2022/07/08 02:27:02;;;;;;;;;;;17.90;66.10;;;;;;5055502;28;19916;-74
2022/07/08 02:29:28;;;;;;;;;;;17.90;66.50;;;;;;5045805;28;19912;-74
2022/07/08 02:31:54;;;;;;;;;;;17.90;66.20;;;;;;5044618;28;19912;-74
2022/07/08 02:34:19;;;;;;;;;;;17.90;66.50;;;;;;5046338;28;19993;-73
2022/07/08 02:36:45;;;;;;;;;;;17.80;66.50;;;;;;5047696;28;20458;-74
2022/07/08 02:39:12;;;;;;;;;;;17.80;66.50;;;;;;5056950;28;20249;-74
2022/07/08 02:41:38;;;;;;;;;;;17.80;66.50;;;;;;5064340;28;19931;-74
2022/07/08 02:44:05;;;;;;;;;;;17.80;66.60;;;;;;5062614;28;20419;-74
2022/07/08 02:46:30;;;;;;;;;;;17.80;66.60;;;;;;5064213;28;19952;-74
2022/07/08 02:48:56;;;;;;;;;;;17.80;66.60;;;;;;5047420;28;19971;-74
2022/07/08 02:51:22;;;;;;;;;;;17.80;66.60;;;;;;5045788;28;19920;-74
2022/07/08 02:53:48;;;;;;;;;;;17.80;66.60;;;;;;5045739;28;19939;-74
2022/07/08 02:56:13;;;;;;;;;;;17.80;66.60;;;;;;5045194;28;19913;-74
2022/07/08 02:58:38;;;;;;;;;;;17.80;66.50;;;;;;5045254;28;19913;-74
2022/07/08 03:01:04;;;;;;;;;;;17.80;66.70;;;;;;5045420;28;19913;-74
2022/07/08 03:03:30;;;;;;;;;;;17.70;66.50;;;;;;5045371;28;20339;-74
2022/07/08 03:05:55;;;;;;;;;;;17.70;66.70;;;;;;5054442;28;19927;-74
2022/07/08 03:08:21;;;;;;;;;;;17.70;66.60;;;;;;5057963;28;19909;-74
2022/07/08 03:10:46;;;;;;;;;;;17.70;66.70;;;;;;5047430;28;19912;-74
2022/07/08 03:13:12;;;;;;;;;;;17.70;66.60;;;;;;5063877;28;19912;-74
2022/07/08 03:15:37;;;;;;;;;;;17.70;66.80;;;;;;5063786;28;20684;-74
2022/07/08 03:18:03;;;;;;;;;;;17.70;66.80;;;;;;5063114;28;20010;-73
2022/07/08 03:20:28;;;;;;;;;;;17.70;66.50;;;;;;5063759;28;19920;-73
2022/07/08 03:22:54;;;;;;;;;;;17.70;66.70;;;;;;5063580;28;19921;-73
2022/07/08 03:25:19;;;;;;;;;;;17.70;66.80;;;;;;5063661;28;19913;-74
2022/07/08 03:27:45;;;;;;;;;;;17.60;66.80;;;;;;5061554;28;19920;-74
2022/07/08 03:30:10;;;;;;;;;;;17.60;66.80;;;;;;5063285;28;19967;-74
2022/07/08 03:32:36;;;;;;;;;;;17.70;66.80;;;;;;5063307;28;19920;-74
2022/07/08 03:35:02;;;;;;;;;;;17.60;66.80;;;;;;5053250;28;19912;-73
2022/07/08 03:37:27;;;;;;;;;;;17.60;66.90;;;;;;5056550;28;19913;-74
2022/07/08 03:39:53;;;;;;;;;;;17.60;66.90;;;;;;5046155;28;19919;-74
2022/07/08 03:42:19;;;;;;;;;;;17.60;66.90;;;;;;5058733;28;19919;-73
2022/07/08 03:44:44;;;;;;;;;;;17.60;66.90;;;;;;5057789;28;20003;-74
2022/07/08 03:47:10;;;;;;;;;;;17.60;66.90;;;;;;5043410;28;20616;-74
2022/07/08 03:49:35;;;;;;;;;;;17.60;66.90;;;;;;5045858;28;19921;-73
2022/07/08 03:52:01;;;;;;;;;;;17.60;66.90;;;;;;5048329;28;19912;-73
2022/07/08 03:54:27;;;;;;;;;;;17.60;67.00;;;;;;5047256;28;19917;-74
2022/07/08 03:56:53;;;;;;;;;;;17.60;67.00;;;;;;5048120;28;19920;-73
2022/07/08 03:59:18;;;;;;;;;;;17.60;67.00;;;;;;5048649;28;19913;-74
2022/07/08 04:01:44;;;;;;;;;;;17.60;67.00;;;;;;5048724;28;19917;-74
2022/07/08 04:04:10;;;;;;;;;;;17.60;67.10;;;;;;5047307;28;19912;-74
2022/07/08 04:06:36;;;;;;;;;;;17.60;67.10;;;;;;5062331;28;20741;-74
2022/07/08 04:09:02;;;;;;;;;;;17.50;67.10;;;;;;5056548;28;19922;-74
2022/07/08 04:11:28;;;;;;;;;;;17.50;67.10;;;;;;5055801;28;20391;-73
2022/07/08 04:13:53;;;;;;;;;;;17.60;67.10;;;;;;5066931;28;19989;-74
2022/07/08 04:16:19;;;;;;;;;;;17.60;67.00;;;;;;5066519;28;19940;-74
2022/07/08 04:18:44;;;;;;;;;;;17.60;67.00;;;;;;5066792;28;19909;-74
2022/07/08 04:21:10;;;;;;;;;;;17.60;67.10;;;;;;5066710;28;19916;-74
2022/07/08 04:23:37;;;;;;;;;;;17.60;67.10;;;;;;5066669;28;20782;-74
2022/07/08 04:26:02;;;;;;;;;;;17.60;67.10;;;;;;5066272;28;19912;-74
2022/07/08 04:28:28;;;;;;;;;;;17.60;67.20;;;;;;5066266;28;19912;-74
2022/07/08 04:30:55;;;;;;;;;;;17.60;67.20;;;;;;5066392;28;19912;-74
2022/07/08 04:33:21;;;;;;;;;;;17.60;67.10;;;;;;5066196;28;19908;-74
2022/07/08 04:35:46;;;;;;;;;;;17.60;67.20;;;;;;5066368;28;19940;-73
2022/07/08 04:38:12;;;;;;;;;;;17.60;67.20;;;;;;5065885;28;19947;-74
2022/07/08 04:40:37;;;;;;;;;;;17.60;67.10;;;;;;5064818;28;20273;-74
2022/07/08 04:43:03;;;;;;;;;;;17.60;67.20;;;;;;5048150;28;20297;-74
2022/07/08 04:45:28;;;;;;;;;;;17.60;67.10;;;;;;5064565;28;19921;-74
2022/07/08 04:47:54;;;;;;;;;;;17.60;67.20;;;;;;5065651;28;19951;-74
2022/07/08 04:50:20;;;;;;;;;;;17.60;67.20;;;;;;5066553;28;19920;-74
2022/07/08 04:52:45;;;;;;;;;;;17.60;67.20;;;;;;5064710;28;19908;-74
2022/07/08 04:55:32;;;;;;;;;;;17.60;67.20;;;;;;5064339;28;20615;-74
2022/07/08 04:58:01;;;;;;;;;;;17.60;67.30;;;;;;5064945;28;19935;-74
2022/07/08 05:00:27;;;;;;;;;;;17.60;67.20;;;;;;5065655;28;19922;-73
2022/07/08 05:02:52;;;;;;;;;;;17.60;67.10;;;;;;5065154;28;19917;-74
2022/07/08 05:05:18;;;;;;;;;;;17.60;67.20;;;;;;5065910;28;19982;-74
2022/07/08 05:07:44;;;;;;;;;;;17.60;67.30;;;;;;5068572;28;20360;-74
2022/07/08 05:10:10;;;;;;;;;;;17.60;67.20;;;;;;5065489;28;19940;-74
2022/07/08 05:12:35;;;;;;;;;;;17.70;67.20;;;;;;5065639;28;19988;-73
2022/07/08 05:15:01;;;;;;;;;;;17.70;67.20;;;;;;5065727;28;19912;-74
2022/07/08 05:17:26;;;;;;;;;;;17.70;67.30;;;;;;5065251;28;19925;-74
2022/07/08 05:19:52;;;;;;;;;;;17.60;67.20;;;;;;5065672;28;19912;-74
2022/07/08 05:22:17;;;;;;;;;;;17.60;67.20;;;;;;5065360;28;20583;-74
2022/07/08 05:24:43;;;;;;;;;;;17.70;68.00;;;;;;5065359;28;19913;-74
2022/07/08 05:27:08;;;;;;;;;;;17.70;67.40;;;;;;5064976;28;19913;-74
2022/07/08 05:29:34;;;;;;;;;;;17.70;67.40;;;;;;5063859;28;19978;-74
2022/07/08 05:31:59;;;;;;;;;;;17.70;67.30;;;;;;5056942;28;19912;-74
2022/07/08 05:34:24;;;;;;;;;;;17.80;67.30;;;;;;5045461;28;19913;-74
2022/07/08 05:36:50;;;;;;;;;;;17.80;67.30;;;;;;5062234;28;19946;-74
2022/07/08 05:39:16;;;;;;;;;;;17.80;67.30;;;;;;5051261;28;19919;-74
2022/07/08 05:41:41;;;;;;;;;;;17.80;67.30;;;;;;5055600;28;19917;-74
2022/07/08 05:44:07;;;;;;;;;;;17.80;67.90;;;;;;5065156;28;19913;-74
2022/07/08 05:46:34;;;;;;;;;;;17.80;67.20;;;;;;5064990;28;19927;-74
2022/07/08 05:48:59;;;;;;;;;;;17.80;67.20;;;;;;5065118;28;19922;-74
2022/07/08 05:51:25;;;;;;;;;;;17.80;67.20;;;;;;5065036;28;19913;-74
2022/07/08 05:53:52;;;;;;;;;;;17.80;67.20;;;;;;5063336;28;19912;-74
2022/07/08 05:56:17;;;;;;;;;;;17.90;67.20;;;;;;5064715;28;19932;-74
2022/07/08 05:58:43;;;;;;;;;;;17.90;67.10;;;;;;5064685;28;19914;-74
2022/07/08 06:01:08;;;;;;;;;;;17.90;67.20;;;;;;5064711;28;20301;-74
2022/07/08 06:03:34;;;;;;;;;;;17.90;67.10;;;;;;5064439;28;19912;-74
2022/07/08 06:05:59;;;;;;;;;;;17.90;67.00;;;;;;5064488;28;19912;-74
2022/07/08 06:08:25;;;;;;;;;;;17.90;66.90;;;;;;5055884;28;19916;-74
2022/07/08 06:10:50;;;;;;;;;;;17.90;66.80;;;;;;5064602;28;19939;-74
2022/07/08 06:13:16;;;;;;;;;;;17.90;67.00;;;;;;5063566;28;19917;-74
2022/07/08 06:15:42;;;;;;;;;;;17.90;67.00;;;;;;5064435;28;19912;-74
2022/07/08 06:18:07;;;;;;;;;;;17.90;67.00;;;;;;5064423;28;19920;-74
2022/07/08 06:20:33;;;;;;;;;;;17.90;67.00;;;;;;5064496;28;19912;-74
2022/07/08 06:22:58;;;;;;;;;;;17.90;66.90;;;;;;5064249;28;19922;-74
2022/07/08 06:25:24;;;;;;;;;;;17.90;66.90;;;;;;5064331;28;19920;-74
2022/07/08 06:27:50;;;;;;;;;;;17.90;66.90;;;;;;5063993;28;19965;-74
2022/07/08 06:30:15;;;;;;;;;;;17.90;66.90;;;;;;5064177;28;19908;-74
2022/07/08 06:32:41;;;;;;;;;;;17.90;66.80;;;;;;5064001;28;19940;-74
2022/07/08 06:35:06;;;;;;;;;;;17.90;66.80;;;;;;5064119;28;19912;-74
2022/07/08 06:37:32;;;;;;;;;;;17.90;66.90;;;;;;5045872;28;19912;-73
2022/07/08 06:39:58;;;;;;;;;;;17.90;66.80;;;;;;5061659;28;19912;-74
2022/07/08 06:42:24;;;;;;;;;;;17.90;66.80;;;;;;5060037;28;19916;-74
2022/07/08 06:44:49;;;;;;;;;;;17.90;66.80;;;;;;5063672;28;19916;-74
2022/07/08 06:47:15;;;;;;;;;;;17.90;66.80;;;;;;5063167;28;20358;-74
2022/07/08 06:49:40;;;;;;;;;;;17.90;66.70;;;;;;5063558;28;19912;-74
2022/07/08 06:52:06;;;;;;;;;;;17.90;66.70;;;;;;5062012;28;19916;-74
2022/07/08 06:54:37;;;;;;;;;;;17.90;66.70;;;;;;5063659;28;19908;-74
2022/07/08 06:57:04;;;;;;;;;;;17.90;66.50;;;;;;5061606;28;20011;-74
2022/07/08 06:59:29;;;;;;;;;;;17.90;66.60;;;;;;5063506;28;19958;-73
2022/07/08 07:01:55;;;;;;;;;;;17.90;66.50;;;;;;5063395;28;19916;-73
2022/07/08 07:04:20;;;;;;;;;;;17.90;66.60;;;;;;5061773;28;19943;-74
2022/07/08 07:06:47;;;;;;;;;;;17.90;66.60;;;;;;5064509;28;19927;-73
2022/07/08 07:09:12;;;;;;;;;;;17.90;66.60;;;;;;5051206;28;19958;-74
2022/07/08 07:11:39;;;;;;;;;;;17.90;66.60;;;;;;5043453;28;20341;-74
2022/07/08 07:14:05;;;;;;;;;;;17.90;66.60;;;;;;5045002;28;20334;-74
2022/07/08 07:16:31;;;;;;;;;;;17.90;66.50;;;;;;5044459;28;19932;-74
2022/07/08 07:18:56;;;;;;;;;;;17.90;66.60;;;;;;5043570;28;20336;-74
2022/07/08 07:21:22;;;;;;;;;;;18.00;66.60;;;;;;5044955;28;19917;-74
2022/07/08 07:23:47;;;;;;;;;;;18.00;66.30;;;;;;5043259;28;19913;-74
2022/07/08 07:26:13;;;;;;;;;;;17.90;66.60;;;;;;5044654;28;20376;-74
2022/07/08 07:28:38;;;;;;;;;;;17.90;66.60;;;;;;5043353;28;19967;-73
2022/07/08 07:31:04;;;;;;;;;;;17.90;66.70;;;;;;5044790;28;19913;-73
2022/07/08 07:33:29;;;;;;;;;;;17.90;66.50;;;;;;5056054;28;19916;-74
2022/07/08 07:35:56;;;;;;;;;;;18.00;66.50;;;;;;5059498;28;19919;-73
2022/07/08 07:38:21;;;;;;;;;;;18.00;66.50;;;;;;5053805;28;19940;-74
2022/07/08 07:40:47;;;;;;;;;;;18.00;66.30;;;;;;5046869;28;19920;-74
2022/07/08 07:43:12;;;;;;;;;;;18.00;66.30;;;;;;5078411;28;19916;-73
2022/07/08 07:45:38;;;;;;;;;;;18.00;66.30;;;;;;5062899;28;19920;-74
2022/07/08 07:48:03;;;;;;;;;;;18.00;66.30;;;;;;5061073;28;19908;-74
2022/07/08 07:50:29;;;;;;;;;;;18.00;66.20;;;;;;5062937;28;20641;-74
2022/07/08 07:52:54;;;;;;;;;;;18.10;66.10;;;;;;5062925;28;19971;-74
2022/07/08 07:55:20;;;;;;;;;;;18.10;66.10;;;;;;5061948;28;19955;-74
2022/07/08 07:57:47;;;;;;;;;;;18.10;66.00;;;;;;5061438;28;19908;-74
2022/07/08 08:00:13;;;;;;;;;;;18.20;65.90;;;;;;5061829;28;19912;-74
2022/07/08 08:02:42;;;;;;;;;;;18.20;65.90;;;;;;5062904;28;19917;-74
2022/07/08 08:05:10;;;;;;;;;;;18.20;65.70;;;;;;5060474;28;20634;-74
2022/07/08 08:07:39;;;;;;;;;;;18.30;65.80;;;;;;5053968;28;19930;-74
2022/07/08 08:10:05;;;;;;;;;;;18.20;65.90;;;;;;5043161;28;20354;-74
2022/07/08 08:12:31;;;;;;;;;;;18.20;65.80;;;;;;5058689;28;19916;-74
2022/07/08 08:14:56;;;;;;;;;;;18.20;65.80;;;;;;5061469;28;19917;-74
2022/07/08 08:17:22;;;;;;;;;;;18.30;65.90;;;;;;5051273;28;20763;-74
2022/07/08 08:19:48;;;;;;;;;;;18.30;65.70;;;;;;5043394;28;19952;-74
2022/07/08 08:22:13;;;;;;;;;;;18.40;65.60;;;;;;5042919;28;19928;-74
2022/07/08 08:24:39;;;;;;;;;;;18.40;66.30;;;;;;5044234;28;19912;-74
2022/07/08 08:27:04;;;;;;;;;;;18.40;65.60;;;;;;5043066;28;20514;-74
2022/07/08 08:29:30;;;;;;;;;;;18.40;65.50;;;;;;5044591;28;19923;-73
2022/07/08 08:31:55;;;;;;;;;;;18.50;66.20;;;;;;5044343;28;19917;-73
2022/07/08 08:34:21;;;;;;;;;;;18.40;65.60;;;;;;5044313;28;19912;-74
2022/07/08 08:36:46;;;;;;;;;;;18.40;65.60;;;;;;5049282;28;19998;-74
2022/07/08 08:39:12;;;;;;;;;;;18.50;65.60;;;;;;5049726;28;19920;-74
2022/07/08 08:41:39;;;;;;;;;;;18.50;65.50;;;;;;5056590;28;19956;-74
2022/07/08 08:44:04;;;;;;;;;;;18.50;65.50;;;;;;5066502;28;19912;-74
2022/07/08 08:46:31;;;;;;;;;;;18.60;65.50;;;;;;5064815;28;19927;-74
2022/07/08 08:48:57;;;;;;;;;;;18.50;65.30;;;;;;5049232;28;20441;-73
2022/07/08 08:51:23;;;;;;;;;;;18.60;65.30;;;;;;5046907;28;19913;-73
2022/07/08 08:53:48;;;;;;;;;;;18.60;65.30;;;;;;5046387;28;19975;-72
2022/07/08 08:56:15;;;;;;;;;;;18.60;65.30;;;;;;5047632;28;19913;-72
2022/07/08 08:58:48;;;;;;;;;;;18.60;65.20;;;;;;5047338;28;19909;-72
2022/07/08 09:01:14;;;;;;;;;;;18.60;65.20;;;;;;5045559;28;20003;-72
2022/07/08 09:03:39;;;;;;;;;;;18.60;65.20;;;;;;5047171;28;19912;-72
2022/07/08 09:06:05;;;;;;;;;;;18.70;65.20;;;;;;5045655;28;20038;-71
2022/07/08 09:08:31;;;;;;;;;;;18.70;65.10;;;;;;5058043;28;19982;-72
2022/07/08 09:10:56;;;;;;;;;;;18.70;65.00;;;;;;5047681;28;19913;-72
2022/07/08 09:13:25;;;;;;;;;;;18.70;64.90;;;;;;5046564;28;19920;-72
2022/07/08 09:15:57;;;;;;;;;;;18.80;64.90;;;;;;5059392;28;19917;-72
2022/07/08 09:18:27;;;;;;;;;;;18.80;64.70;;;;;;5062166;28;20427;-72
2022/07/08 09:20:53;;;;;;;;;;;18.80;64.70;;;;;;5059340;28;19912;-72
2022/07/08 09:23:20;;;;;;;;;;;18.80;64.80;;;;;;5062144;28;19932;-72
2022/07/08 09:25:47;;;;;;;;;;;18.90;64.90;;;;;;5063019;28;20551;-72
2022/07/08 09:28:12;;;;;;;;;;;18.90;64.90;;;;;;5071012;28;20289;-72
2022/07/08 09:30:39;;;;;;;;;;;18.90;64.70;;;;;;5063176;28;19912;-72
2022/07/08 09:33:04;;;;;;;;;;;18.90;64.60;;;;;;5062981;28;19944;-72
2022/07/08 09:35:35;;;;;;;;;;;19.10;64.50;;;;;;5061880;28;20014;-72
2022/07/08 09:38:01;;;;;;;;;;;19.10;64.40;;;;;;5065201;28;20021;-72
2022/07/08 09:40:27;;;;;;;;;;;19.20;64.40;;;;;;5060124;28;19917;-72
2022/07/08 09:42:52;;;;;;;;;;;19.30;64.50;;;;;;5059829;28;19917;-72
2022/07/08 09:45:18;;;;;;;;;;;19.40;64.20;;;;;;5061853;28;21495;-72
2022/07/08 09:47:43;;;;;;;;;;;19.40;64.60;;;;;;5061330;28;20019;-72
2022/07/08 09:50:09;;;;;;;;;;;19.60;63.70;;;;;;5062714;28;19924;-72
2022/07/08 09:52:34;;;;;;;;;;;19.70;63.60;;;;;;5059479;28;20524;-72
2022/07/08 09:55:01;;;;;;;;;;;19.80;63.20;;;;;;5062404;28;20449;-73
2022/07/08 09:57:27;;;;;;;;;;;19.90;63.30;;;;;;5050396;28;19924;-72
2022/07/08 09:59:54;;;;;;;;;;;20.10;62.90;;;;;;5043901;28;20655;-73
2022/07/08 10:02:20;;;;;;;;;;;20.20;62.70;;;;;;5045023;28;20004;-72
2022/07/08 10:04:46;;;;;;;;;;;20.20;62.50;;;;;;5045591;28;20019;-72
2022/07/08 10:07:11;;;;;;;;;;;20.30;62.70;;;;;;5054887;28;20453;-73
2022/07/08 10:09:37;;;;;;;;;;;20.40;62.50;;;;;;5047264;28;19916;-73
2022/07/08 10:12:04;;;;;;;;;;;20.50;62.40;;;;;;5058091;28;20506;-72
2022/07/08 10:14:30;;;;;;;;;;;20.60;62.40;;;;;;5049925;28;21499;-79
2022/07/08 10:16:57;;;;;;;;;;;20.70;62.20;;;;;;5054542;28;19988;-75
2022/07/08 10:19:31;;;;;;;;;;;20.70;62.20;;;;;;5051809;28;19917;-74
2022/07/08 10:21:57;;;;;;;;;;;20.70;62.40;;;;;;5061069;28;19924;-69
2022/07/08 10:24:25;;;;;;;;;;;20.70;62.60;;;;;;5059203;28;19987;-75
2022/07/08 10:26:50;;;;;;;;;;;20.70;62.50;;;;;;5051823;28;19909;-75
2022/07/08 10:29:16;;;;;;;;;;;20.70;62.60;;;;;;5058211;28;19931;-75
2022/07/08 10:31:51;;;;;;;;;;;20.70;62.10;;;;;;5053611;28;19919;-75
2022/07/08 10:34:17;;;;;;;;;;;20.80;62.20;;;;;;5046438;28;19924;-74
2022/07/08 10:36:47;;;;;;;;;;;20.80;62.10;;;;;;5063310;28;19922;-75
2022/07/08 10:39:13;;;;;;;;;;;20.80;61.90;;;;;;5060029;28;20750;-75
2022/07/08 10:41:39;;;;;;;;;;;20.90;61.80;;;;;;5055575;28;20574;-75
2022/07/08 10:44:05;;;;;;;;;;;20.90;62.00;;;;;;5065468;28;19913;-74
2022/07/08 10:46:30;;;;;;;;;;;21.00;62.00;;;;;;5054048;28;20381;-75
2022/07/08 10:48:56;;;;;;;;;;;21.10;61.60;;;;;;5057240;28;19944;-75
2022/07/08 10:51:24;;;;;;;;;;;21.10;61.60;;;;;;5053079;28;20646;-75
2022/07/08 10:53:54;;;;;;;;;;;21.10;61.70;;;;;;5046588;28;19916;-74
2022/07/08 10:56:38;;;;;;;;;;;21.20;61.60;;;;;;5046789;28;20000;-75
2022/07/08 10:59:19;;;;;;;;;;;21.20;61.40;;;;;;5057447;28;19924;-75
2022/07/08 11:02:05;;;;;;;;;;;21.30;62.80;;;;;;5062089;28;19959;-75
2022/07/08 11:04:31;;;;;;;;;;;21.30;62.10;;;;;;5059772;28;19912;-75
2022/07/08 11:07:16;;;;;;;;;;;21.40;61.90;;;;;;5064649;28;19959;-75
2022/07/08 11:09:42;;;;;;;;;;;21.50;61.70;;;;;;5063838;28;20011;-75
2022/07/08 11:12:11;;;;;;;;;;;21.50;62.10;;;;;;5062059;28;19915;-75
2022/07/08 11:14:37;;;;;;;;;;;21.50;62.00;;;;;;5056851;28;19916;-75
2022/07/08 11:17:02;;;;;;;;;;;21.60;61.90;;;;;;5051950;28;19919;-75
2022/07/08 11:19:31;;;;;;;;;;;21.70;61.90;;;;;;5045887;28;19913;-76
2022/07/08 11:22:02;;;;;;;;;;;21.70;62.10;;;;;;5064941;28;19920;-75
2022/07/08 11:24:28;;;;;;;;;;;21.70;62.00;;;;;;5057570;28;20003;-75
2022/07/08 11:26:54;;;;;;;;;;;21.70;61.90;;;;;;5046530;28;20020;-75
2022/07/08 11:29:24;;;;;;;;;;;21.70;61.90;;;;;;5050273;28;19913;-75
2022/07/08 11:31:59;;;;;;;;;;;21.70;62.10;;;;;;5059284;28;19919;-75
2022/07/08 11:34:25;;;;;;;;;;;21.80;61.90;;;;;;5063195;28;19920;-75
2022/07/08 11:36:57;;;;;;;;;;;21.80;61.70;;;;;;5060881;28;19972;-75
2022/07/08 11:39:23;;;;;;;;;;;21.90;61.70;;;;;;5061297;28;19912;-75
2022/07/08 11:41:49;;;;;;;;;;;21.90;61.70;;;;;;5062020;28;20270;-75
2022/07/08 11:44:20;;;;;;;;;;;21.90;62.00;;;;;;5051935;28;20066;-75
2022/07/08 11:46:52;;;;;;;;;;;21.90;62.30;;;;;;5045836;28;19940;-75
2022/07/08 11:49:18;;;;;;;;;;;21.90;62.20;;;;;;5059821;28;20097;-75
2022/07/08 11:51:44;;;;;;;;;;;21.90;61.90;;;;;;5064357;28;19999;-75
2022/07/08 11:54:10;;;;;;;;;;;22.00;62.00;;;;;;5056621;28;19916;-75
2022/07/08 11:56:35;;;;;;;;;;;21.90;62.30;;;;;;5052411;28;19958;-75
2022/07/08 11:59:01;;;;;;;;;;;22.00;62.20;;;;;;5058610;28;19986;-75
2022/07/08 12:01:26;;;;;;;;;;;22.00;62.10;;;;;;5064751;28;19917;-75
2022/07/08 12:03:52;;;;;;;;;;;22.00;62.00;;;;;;5051589;28;19919;-75
2022/07/08 12:06:24;;;;;;;;;;;22.00;61.90;;;;;;5045725;28;19919;-75
2022/07/08 12:08:50;;;;;;;;;;;22.10;62.40;;;;;;5057136;28;19909;-75
2022/07/08 12:11:19;;;;;;;;;;;22.10;62.40;;;;;;5059405;28;20540;-75
2022/07/08 12:13:46;;;;;;;;;;;22.10;62.40;;;;;;5056443;28;19920;-75
2022/07/08 12:16:28;;;;;;;;;;;22.10;62.80;;;;;;5059993;28;19908;-75
2022/07/08 12:18:54;;;;;;;;;;;22.20;63.00;;;;;;5055773;28;19917;-75
2022/07/08 12:21:19;;;;;;;;;;;22.30;63.00;;;;;;5054536;28;19958;-75
2022/07/08 12:23:53;;;;;;;;;;;22.40;63.20;;;;;;5056193;28;19935;-76
2022/07/08 12:26:19;;;;;;;;;;;22.30;63.10;;;;;;5057016;28;19917;-75
2022/07/08 12:28:44;;;;;;;;;;;22.40;62.60;;;;;;5067483;28;19962;-75
2022/07/08 12:31:10;;;;;;;;;;;22.50;61.80;;;;;;5065712;28;19912;-76
2022/07/08 12:33:35;;;;;;;;;;;22.60;61.60;;;;;;5067026;28;19935;-75
2022/07/08 12:36:03;;;;;;;;;;;22.70;61.70;;;;;;5061893;28;19923;-76
2022/07/08 12:38:30;;;;;;;;;;;22.70;61.80;;;;;;5063923;28;19928;-76
2022/07/08 12:40:55;;;;;;;;;;;22.80;62.30;;;;;;5065246;28;19934;-76
2022/07/08 12:43:29;;;;;;;;;;;22.80;62.30;;;;;;5065158;28;19995;-76
2022/07/08 12:45:54;;;;;;;;;;;22.90;62.40;;;;;;5065337;28;20011;-76
2022/07/08 12:48:20;;;;;;;;;;;22.90;62.60;;;;;;5066765;28;20003;-76
2022/07/08 12:50:45;;;;;;;;;;;23.00;62.50;;;;;;5058650;28;19923;-76
2022/07/08 12:53:11;;;;;;;;;;;23.00;62.50;;;;;;5064738;28;19916;-76
2022/07/08 12:55:37;;;;;;;;;;;23.00;62.10;;;;;;5066264;28;20241;-76
2022/07/08 12:58:02;;;;;;;;;;;23.10;62.20;;;;;;5063856;28;20426;-76
2022/07/08 13:00:28;;;;;;;;;;;23.10;62.20;;;;;;5063475;28;19912;-76
2022/07/08 13:02:53;;;;;;;;;;;23.10;62.20;;;;;;5067142;28;19919;-76
2022/07/08 13:05:19;;;;;;;;;;;23.20;62.00;;;;;;5068240;28;19912;-76
2022/07/08 13:07:44;;;;;;;;;;;23.20;61.70;;;;;;5066574;28;19916;-76
2022/07/08 13:10:10;;;;;;;;;;;23.30;61.90;;;;;;5066154;28;19920;-76
2022/07/08 13:12:36;;;;;;;;;;;23.20;61.80;;;;;;5063974;28;19969;-76
2022/07/08 13:15:01;;;;;;;;;;;23.30;61.60;;;;;;5063038;28;19912;-76
2022/07/08 13:17:27;;;;;;;;;;;23.30;61.80;;;;;;5063947;28;19964;-76
2022/07/08 13:19:52;;;;;;;;;;;23.40;61.60;;;;;;5065306;28;19920;-76
2022/07/08 13:22:18;;;;;;;;;;;23.40;61.60;;;;;;5063478;28;19917;-76
2022/07/08 13:24:43;;;;;;;;;;;23.40;61.50;;;;;;5066239;28;19912;-76
2022/07/08 13:27:09;;;;;;;;;;;23.40;61.80;;;;;;5065045;28;20365;-76
2022/07/08 13:29:34;;;;;;;;;;;23.40;61.60;;;;;;5065992;28;20270;-76
2022/07/08 13:32:00;;;;;;;;;;;23.40;61.50;;;;;;5066128;28;19953;-76
2022/07/08 13:34:26;;;;;;;;;;;23.40;62.10;;;;;;5063540;28;20577;-76
2022/07/08 13:36:51;;;;;;;;;;;23.30;62.30;;;;;;5065997;28;19957;-76
2022/07/08 13:39:17;;;;;;;;;;;23.30;62.20;;;;;;5065868;28;19917;-76
2022/07/08 13:41:42;;;;;;;;;;;23.40;61.90;;;;;;5063594;28;19920;-76
2022/07/08 13:44:08;;;;;;;;;;;23.40;62.10;;;;;;5065265;28;19925;-76
2022/07/08 13:46:34;;;;;;;;;;;23.50;61.80;;;;;;5060252;28;19928;-76
2022/07/08 13:49:02;;;;;;;;;;;23.60;62.10;;;;;;5059800;28;20007;-76
2022/07/08 13:51:28;;;;;;;;;;;23.60;61.90;;;;;;5056993;28;19920;-75
2022/07/08 13:53:54;;;;;;;;;;;23.50;61.70;;;;;;5061563;28;19913;-76
2022/07/08 13:56:21;;;;;;;;;;;23.50;62.20;;;;;;5061446;28;20007;-76
2022/07/08 13:58:48;;;;;;;;;;;23.50;61.80;;;;;;5056978;28;19942;-76
2022/07/08 14:01:14;;;;;;;;;;;23.50;62.20;;;;;;5064254;28;19919;-76
2022/07/08 14:03:39;;;;;;;;;;;23.60;62.30;;;;;;5057707;28;19955;-76
2022/07/08 14:06:05;;;;;;;;;;;23.50;62.40;;;;;;5061908;28;19948;-76
2022/07/08 14:08:31;;;;;;;;;;;23.50;62.50;;;;;;5054984;28;19918;-76
2022/07/08 14:10:56;;;;;;;;;;;23.60;62.30;;;;;;5063698;28;19988;-76